sensor_id;sensor_type;location;lat;lon;timestamp;P1;durP1;ratioP1;P2;durP2;ratioP2
61188;SDS011;47054;39.716;2.904;2022-09-30T00:00:44;8.27;;;4.78;;
61188;SDS011;47054;39.716;2.904;2022-09-30T00:03:29;7.43;;;4.55;;
61188;SDS011;47054;39.716;2.904;2022-09-30T00:06:13;8.25;;;4.68;;
61188;SDS011;47054;39.716;2.904;2022-09-30T00:08:58;7.80;;;4.78;;
61188;SDS011;47054;39.716;2.904;2022-09-30T00:11:43;7.93;;;4.68;;
61188;SDS011;47054;39.716;2.904;2022-09-30T00:14:29;7.75;;;4.72;;
61188;SDS011;47054;39.716;2.904;2022-09-30T00:17:13;8.23;;;4.93;;
61188;SDS011;47054;39.716;2.904;2022-09-30T00:19:57;9.77;;;3.95;;
61188;SDS011;47054;39.716;2.904;2022-09-30T00:22:42;5.80;;;3.88;;
61188;SDS011;47054;39.716;2.904;2022-09-30T00:25:27;7.22;;;4.10;;
61188;SDS011;47054;39.716;2.904;2022-09-30T00:28:12;7.30;;;4.20;;
61188;SDS011;47054;39.716;2.904;2022-09-30T00:30:58;6.95;;;4.30;;
61188;SDS011;47054;39.716;2.904;2022-09-30T00:33:44;6.35;;;4.22;;
61188;SDS011;47054;39.716;2.904;2022-09-30T00:36:51;6.80;;;3.80;;
61188;SDS011;47054;39.716;2.904;2022-09-30T00:39:37;6.82;;;4.07;;
61188;SDS011;47054;39.716;2.904;2022-09-30T00:42:21;6.32;;;3.88;;
61188;SDS011;47054;39.716;2.904;2022-09-30T00:45:08;6.13;;;3.78;;
61188;SDS011;47054;39.716;2.904;2022-09-30T00:50:52;6.60;;;3.78;;
61188;SDS011;47054;39.716;2.904;2022-09-30T00:53:49;6.97;;;3.80;;
61188;SDS011;47054;39.716;2.904;2022-09-30T00:56:38;5.72;;;3.40;;
61188;SDS011;47054;39.716;2.904;2022-09-30T00:59:30;5.95;;;3.58;;
61188;SDS011;47054;39.716;2.904;2022-09-30T01:02:21;6.68;;;3.55;;
61188;SDS011;47054;39.716;2.904;2022-09-30T01:05:06;6.50;;;3.63;;
61188;SDS011;47054;39.716;2.904;2022-09-30T01:07:55;5.20;;;3.45;;
61188;SDS011;47054;39.716;2.904;2022-09-30T01:10:43;7.10;;;4.05;;
61188;SDS011;47054;39.716;2.904;2022-09-30T01:13:28;6.38;;;3.10;;
61188;SDS011;47054;39.716;2.904;2022-09-30T01:41:20;5.55;;;3.15;;
61188;SDS011;47054;39.716;2.904;2022-09-30T01:44:18;4.32;;;2.80;;
61188;SDS011;47054;39.716;2.904;2022-09-30T01:47:24;5.22;;;2.60;;
61188;SDS011;47054;39.716;2.904;2022-09-30T01:50:20;4.57;;;2.80;;
61188;SDS011;47054;39.716;2.904;2022-09-30T01:56:17;5.18;;;2.63;;
61188;SDS011;47054;39.716;2.904;2022-09-30T01:59:05;4.30;;;2.60;;
61188;SDS011;47054;39.716;2.904;2022-09-30T02:01:55;4.80;;;2.47;;
61188;SDS011;47054;39.716;2.904;2022-09-30T02:04:50;4.15;;;2.58;;
61188;SDS011;47054;39.716;2.904;2022-09-30T02:07:46;4.00;;;2.50;;
61188;SDS011;47054;39.716;2.904;2022-09-30T02:10:40;3.15;;;2.10;;
61188;SDS011;47054;39.716;2.904;2022-09-30T02:13:31;4.57;;;2.70;;
61188;SDS011;47054;39.716;2.904;2022-09-30T02:16:42;4.10;;;2.30;;
61188;SDS011;47054;39.716;2.904;2022-09-30T02:19:36;3.67;;;2.30;;
61188;SDS011;47054;39.716;2.904;2022-09-30T02:22:51;4.28;;;2.13;;
61188;SDS011;47054;39.716;2.904;2022-09-30T02:25:44;4.45;;;2.28;;
61188;SDS011;47054;39.716;2.904;2022-09-30T02:31:22;4.15;;;2.30;;
61188;SDS011;47054;39.716;2.904;2022-09-30T02:34:10;3.53;;;2.25;;
61188;SDS011;47054;39.716;2.904;2022-09-30T02:37:04;3.63;;;2.03;;
61188;SDS011;47054;39.716;2.904;2022-09-30T02:40:10;5.13;;;2.10;;
61188;SDS011;47054;39.716;2.904;2022-09-30T02:43:01;4.86;;;2.16;;
61188;SDS011;47054;39.716;2.904;2022-09-30T02:45:50;4.43;;;1.92;;
61188;SDS011;47054;39.716;2.904;2022-09-30T02:48:41;3.90;;;2.03;;
61188;SDS011;47054;39.716;2.904;2022-09-30T02:51:44;3.45;;;1.60;;
61188;SDS011;47054;39.716;2.904;2022-09-30T02:54:51;3.25;;;1.80;;
61188;SDS011;47054;39.716;2.904;2022-09-30T03:00:52;3.33;;;1.60;;
61188;SDS011;47054;39.716;2.904;2022-09-30T03:06:33;5.82;;;2.00;;
61188;SDS011;47054;39.716;2.904;2022-09-30T03:09:23;3.55;;;1.90;;
61188;SDS011;47054;39.716;2.904;2022-09-30T03:27:58;3.03;;;1.33;;
61188;SDS011;47054;39.716;2.904;2022-09-30T03:34:00;7.05;;;1.50;;
61188;SDS011;47054;39.716;2.904;2022-09-30T03:43:07;2.22;;;1.23;;
61188;SDS011;47054;39.716;2.904;2022-09-30T03:49:44;3.45;;;1.38;;
61188;SDS011;47054;39.716;2.904;2022-09-30T03:52:33;2.78;;;1.08;;
61188;SDS011;47054;39.716;2.904;2022-09-30T03:55:18;3.03;;;1.30;;
61188;SDS011;47054;39.716;2.904;2022-09-30T03:58:05;3.47;;;1.40;;
61188;SDS011;47054;39.716;2.904;2022-09-30T04:00:52;2.58;;;1.45;;
61188;SDS011;47054;39.716;2.904;2022-09-30T04:03:37;3.70;;;1.30;;
61188;SDS011;47054;39.716;2.904;2022-09-30T04:06:22;2.78;;;1.30;;
61188;SDS011;47054;39.716;2.904;2022-09-30T04:09:08;2.47;;;1.40;;
61188;SDS011;47054;39.716;2.904;2022-09-30T04:11:52;3.00;;;1.38;;
61188;SDS011;47054;39.716;2.904;2022-09-30T04:14:37;3.42;;;1.52;;
61188;SDS011;47054;39.716;2.904;2022-09-30T04:17:22;2.38;;;1.30;;
61188;SDS011;47054;39.716;2.904;2022-09-30T04:20:06;2.22;;;1.40;;
61188;SDS011;47054;39.716;2.904;2022-09-30T04:22:51;2.17;;;1.27;;
61188;SDS011;47054;39.716;2.904;2022-09-30T04:25:36;2.92;;;1.20;;
61188;SDS011;47054;39.716;2.904;2022-09-30T04:28:21;4.45;;;1.30;;
61188;SDS011;47054;39.716;2.904;2022-09-30T04:31:06;2.42;;;1.20;;
61188;SDS011;47054;39.716;2.904;2022-09-30T04:33:51;2.42;;;1.38;;
61188;SDS011;47054;39.716;2.904;2022-09-30T04:36:35;1.52;;;1.02;;
61188;SDS011;47054;39.716;2.904;2022-09-30T04:39:20;2.40;;;1.33;;
61188;SDS011;47054;39.716;2.904;2022-09-30T04:42:04;2.65;;;1.10;;
61188;SDS011;47054;39.716;2.904;2022-09-30T04:44:49;1.63;;;1.05;;
61188;SDS011;47054;39.716;2.904;2022-09-30T04:47:34;1.65;;;1.00;;
61188;SDS011;47054;39.716;2.904;2022-09-30T04:50:19;3.08;;;1.40;;
61188;SDS011;47054;39.716;2.904;2022-09-30T04:53:03;4.60;;;1.27;;
61188;SDS011;47054;39.716;2.904;2022-09-30T04:55:47;1.55;;;1.00;;
61188;SDS011;47054;39.716;2.904;2022-09-30T04:58:32;3.30;;;1.30;;
61188;SDS011;47054;39.716;2.904;2022-09-30T05:01:17;2.22;;;1.10;;
61188;SDS011;47054;39.716;2.904;2022-09-30T05:04:02;3.20;;;1.08;;
61188;SDS011;47054;39.716;2.904;2022-09-30T05:06:46;2.47;;;1.25;;
61188;SDS011;47054;39.716;2.904;2022-09-30T05:09:32;2.33;;;1.10;;
61188;SDS011;47054;39.716;2.904;2022-09-30T05:12:17;2.45;;;1.25;;
61188;SDS011;47054;39.716;2.904;2022-09-30T05:15:03;1.88;;;1.02;;
61188;SDS011;47054;39.716;2.904;2022-09-30T05:17:48;2.47;;;1.15;;
61188;SDS011;47054;39.716;2.904;2022-09-30T05:20:33;1.95;;;1.00;;
61188;SDS011;47054;39.716;2.904;2022-09-30T05:23:19;3.03;;;1.17;;
61188;SDS011;47054;39.716;2.904;2022-09-30T05:26:04;1.98;;;0.95;;
61188;SDS011;47054;39.716;2.904;2022-09-30T05:28:49;2.45;;;1.20;;
61188;SDS011;47054;39.716;2.904;2022-09-30T05:31:33;2.67;;;1.10;;
61188;SDS011;47054;39.716;2.904;2022-09-30T05:34:18;2.88;;;1.10;;
61188;SDS011;47054;39.716;2.904;2022-09-30T05:37:04;2.25;;;1.08;;
61188;SDS011;47054;39.716;2.904;2022-09-30T05:39:49;1.70;;;1.00;;
61188;SDS011;47054;39.716;2.904;2022-09-30T05:42:34;3.08;;;1.00;;
61188;SDS011;47054;39.716;2.904;2022-09-30T05:45:20;1.60;;;1.00;;
61188;SDS011;47054;39.716;2.904;2022-09-30T05:48:04;2.95;;;1.27;;
61188;SDS011;47054;39.716;2.904;2022-09-30T05:50:55;2.22;;;1.02;;
61188;SDS011;47054;39.716;2.904;2022-09-30T05:53:43;2.38;;;1.10;;
61188;SDS011;47054;39.716;2.904;2022-09-30T05:56:28;2.30;;;1.13;;
61188;SDS011;47054;39.716;2.904;2022-09-30T05:59:12;1.63;;;0.90;;
61188;SDS011;47054;39.716;2.904;2022-09-30T06:01:56;1.88;;;0.98;;
61188;SDS011;47054;39.716;2.904;2022-09-30T06:04:41;2.25;;;1.05;;
61188;SDS011;47054;39.716;2.904;2022-09-30T06:07:25;1.95;;;0.95;;
61188;SDS011;47054;39.716;2.904;2022-09-30T06:10:11;2.28;;;1.10;;
61188;SDS011;47054;39.716;2.904;2022-09-30T06:12:55;1.38;;;0.90;;
61188;SDS011;47054;39.716;2.904;2022-09-30T06:15:43;1.50;;;0.90;;
61188;SDS011;47054;39.716;2.904;2022-09-30T06:18:27;1.70;;;1.00;;
61188;SDS011;47054;39.716;2.904;2022-09-30T06:21:14;1.70;;;1.05;;
61188;SDS011;47054;39.716;2.904;2022-09-30T06:24:01;2.03;;;1.05;;
61188;SDS011;47054;39.716;2.904;2022-09-30T06:26:46;4.05;;;1.00;;
61188;SDS011;47054;39.716;2.904;2022-09-30T06:29:30;2.00;;;1.00;;
61188;SDS011;47054;39.716;2.904;2022-09-30T06:32:15;2.17;;;1.20;;
61188;SDS011;47054;39.716;2.904;2022-09-30T06:35:00;2.65;;;1.00;;
61188;SDS011;47054;39.716;2.904;2022-09-30T06:37:49;2.45;;;1.60;;
61188;SDS011;47054;39.716;2.904;2022-09-30T06:40:34;1.95;;;1.10;;
61188;SDS011;47054;39.716;2.904;2022-09-30T06:43:19;2.92;;;1.00;;
61188;SDS011;47054;39.716;2.904;2022-09-30T06:46:04;1.67;;;0.90;;
61188;SDS011;47054;39.716;2.904;2022-09-30T06:48:49;1.98;;;0.90;;
61188;SDS011;47054;39.716;2.904;2022-09-30T06:51:37;3.70;;;0.90;;
61188;SDS011;47054;39.716;2.904;2022-09-30T06:54:22;1.77;;;1.08;;
61188;SDS011;47054;39.716;2.904;2022-09-30T06:57:06;1.70;;;0.93;;
61188;SDS011;47054;39.716;2.904;2022-09-30T06:59:51;1.55;;;0.98;;
61188;SDS011;47054;39.716;2.904;2022-09-30T07:02:35;1.95;;;0.90;;
61188;SDS011;47054;39.716;2.904;2022-09-30T07:05:22;1.83;;;0.90;;
61188;SDS011;47054;39.716;2.904;2022-09-30T07:08:08;2.05;;;0.95;;
61188;SDS011;47054;39.716;2.904;2022-09-30T07:10:53;1.50;;;0.80;;
61188;SDS011;47054;39.716;2.904;2022-09-30T07:13:38;1.42;;;0.80;;
61188;SDS011;47054;39.716;2.904;2022-09-30T07:16:23;2.13;;;0.77;;
61188;SDS011;47054;39.716;2.904;2022-09-30T07:19:10;2.33;;;0.80;;
61188;SDS011;47054;39.716;2.904;2022-09-30T07:21:55;1.83;;;0.80;;
61188;SDS011;47054;39.716;2.904;2022-09-30T07:25:01;1.85;;;0.82;;
61188;SDS011;47054;39.716;2.904;2022-09-30T07:27:47;2.38;;;0.90;;
61188;SDS011;47054;39.716;2.904;2022-09-30T07:30:31;1.58;;;0.70;;
61188;SDS011;47054;39.716;2.904;2022-09-30T07:33:16;1.92;;;0.90;;
61188;SDS011;47054;39.716;2.904;2022-09-30T07:36:00;1.10;;;0.60;;
61188;SDS011;47054;39.716;2.904;2022-09-30T07:38:50;1.25;;;0.70;;
61188;SDS011;47054;39.716;2.904;2022-09-30T07:41:36;1.90;;;1.10;;
61188;SDS011;47054;39.716;2.904;2022-09-30T07:44:23;1.33;;;0.90;;
61188;SDS011;47054;39.716;2.904;2022-09-30T07:47:09;2.17;;;0.88;;
61188;SDS011;47054;39.716;2.904;2022-09-30T07:49:55;1.63;;;0.90;;
61188;SDS011;47054;39.716;2.904;2022-09-30T07:52:39;0.60;;;0.60;;
61188;SDS011;47054;39.716;2.904;2022-09-30T07:55:24;2.13;;;0.90;;
61188;SDS011;47054;39.716;2.904;2022-09-30T07:58:08;1.40;;;0.70;;
61188;SDS011;47054;39.716;2.904;2022-09-30T08:00:53;0.75;;;0.60;;
61188;SDS011;47054;39.716;2.904;2022-09-30T08:03:39;2.55;;;0.80;;
61188;SDS011;47054;39.716;2.904;2022-09-30T08:06:28;2.58;;;0.80;;
61188;SDS011;47054;39.716;2.904;2022-09-30T08:09:15;1.17;;;0.80;;
61188;SDS011;47054;39.716;2.904;2022-09-30T08:12:01;1.27;;;0.70;;
61188;SDS011;47054;39.716;2.904;2022-09-30T08:14:47;1.77;;;0.90;;
61188;SDS011;47054;39.716;2.904;2022-09-30T08:17:32;2.60;;;0.77;;
61188;SDS011;47054;39.716;2.904;2022-09-30T08:20:16;2.45;;;0.90;;
61188;SDS011;47054;39.716;2.904;2022-09-30T08:23:01;1.25;;;0.60;;
61188;SDS011;47054;39.716;2.904;2022-09-30T08:25:45;1.08;;;0.70;;
61188;SDS011;47054;39.716;2.904;2022-09-30T08:28:30;1.33;;;0.70;;
61188;SDS011;47054;39.716;2.904;2022-09-30T08:31:16;1.25;;;0.60;;
61188;SDS011;47054;39.716;2.904;2022-09-30T08:34:02;1.60;;;0.77;;
61188;SDS011;47054;39.716;2.904;2022-09-30T08:36:47;1.40;;;0.70;;
61188;SDS011;47054;39.716;2.904;2022-09-30T08:39:31;2.05;;;0.80;;
61188;SDS011;47054;39.716;2.904;2022-09-30T08:45:47;1.17;;;0.80;;
61188;SDS011;47054;39.716;2.904;2022-09-30T08:54:29;1.27;;;0.60;;
61188;SDS011;47054;39.716;2.904;2022-09-30T08:57:16;2.95;;;0.98;;
61188;SDS011;47054;39.716;2.904;2022-09-30T09:00:02;1.48;;;0.80;;
61188;SDS011;47054;39.716;2.904;2022-09-30T09:02:55;2.60;;;0.77;;
61188;SDS011;47054;39.716;2.904;2022-09-30T09:20:57;1.42;;;0.60;;
61188;SDS011;47054;39.716;2.904;2022-09-30T09:23:47;2.10;;;0.90;;
61188;SDS011;47054;39.716;2.904;2022-09-30T09:26:34;2.50;;;0.98;;
61188;SDS011;47054;39.716;2.904;2022-09-30T09:32:25;1.75;;;0.90;;
61188;SDS011;47054;39.716;2.904;2022-09-30T09:35:14;1.30;;;0.57;;
61188;SDS011;47054;39.716;2.904;2022-09-30T09:38:40;4.13;;;1.02;;
61188;SDS011;47054;39.716;2.904;2022-09-30T09:41:33;2.08;;;0.70;;
61188;SDS011;47054;39.716;2.904;2022-09-30T09:44:29;3.60;;;1.00;;
61188;SDS011;47054;39.716;2.904;2022-09-30T09:47:16;1.80;;;0.70;;
61188;SDS011;47054;39.716;2.904;2022-09-30T09:50:02;1.20;;;0.50;;
61188;SDS011;47054;39.716;2.904;2022-09-30T09:55:43;2.38;;;0.70;;
61188;SDS011;47054;39.716;2.904;2022-09-30T09:58:28;1.88;;;0.68;;
61188;SDS011;47054;39.716;2.904;2022-09-30T10:01:18;2.38;;;0.80;;
61188;SDS011;47054;39.716;2.904;2022-09-30T10:04:22;1.65;;;0.50;;
61188;SDS011;47054;39.716;2.904;2022-09-30T10:07:12;2.85;;;0.70;;
61188;SDS011;47054;39.716;2.904;2022-09-30T10:10:05;3.33;;;0.82;;
61188;SDS011;47054;39.716;2.904;2022-09-30T10:12:50;3.25;;;0.70;;
61188;SDS011;47054;39.716;2.904;2022-09-30T10:15:35;3.55;;;0.90;;
61188;SDS011;47054;39.716;2.904;2022-09-30T10:18:27;2.63;;;0.90;;
61188;SDS011;47054;39.716;2.904;2022-09-30T10:24:17;6.43;;;0.90;;
61188;SDS011;47054;39.716;2.904;2022-09-30T10:27:03;4.72;;;0.93;;
61188;SDS011;47054;39.716;2.904;2022-09-30T10:30:08;2.90;;;0.68;;
61188;SDS011;47054;39.716;2.904;2022-09-30T10:32:53;3.92;;;0.80;;
61188;SDS011;47054;39.716;2.904;2022-09-30T10:35:47;3.13;;;0.90;;
61188;SDS011;47054;39.716;2.904;2022-09-30T10:38:36;2.53;;;0.90;;
61188;SDS011;47054;39.716;2.904;2022-09-30T10:41:29;4.70;;;1.17;;
61188;SDS011;47054;39.716;2.904;2022-09-30T10:44:19;2.55;;;0.80;;
61188;SDS011;47054;39.716;2.904;2022-09-30T10:47:06;3.95;;;1.10;;
61188;SDS011;47054;39.716;2.904;2022-09-30T10:55:42;2.97;;;0.90;;
61188;SDS011;47054;39.716;2.904;2022-09-30T11:01:37;2.22;;;0.70;;
61188;SDS011;47054;39.716;2.904;2022-09-30T11:04:28;1.80;;;0.80;;
61188;SDS011;47054;39.716;2.904;2022-09-30T11:10:17;4.15;;;0.70;;
61188;SDS011;47054;39.716;2.904;2022-09-30T11:13:52;2.60;;;0.90;;
61188;SDS011;47054;39.716;2.904;2022-09-30T11:19:10;3.95;;;0.80;;
61188;SDS011;47054;39.716;2.904;2022-09-30T11:25:01;2.53;;;0.80;;
61188;SDS011;47054;39.716;2.904;2022-09-30T11:33:56;3.15;;;1.15;;
61188;SDS011;47054;39.716;2.904;2022-09-30T11:40:25;3.92;;;0.88;;
61188;SDS011;47054;39.716;2.904;2022-09-30T11:52:31;2.65;;;0.77;;
61188;SDS011;47054;39.716;2.904;2022-09-30T11:58:50;3.20;;;0.80;;
61188;SDS011;47054;39.716;2.904;2022-09-30T12:01:40;7.60;;;1.33;;
61188;SDS011;47054;39.716;2.904;2022-09-30T12:04:29;3.35;;;0.77;;
61188;SDS011;47054;39.716;2.904;2022-09-30T12:07:20;3.88;;;0.70;;
61188;SDS011;47054;39.716;2.904;2022-09-30T12:10:19;3.63;;;0.98;;
61188;SDS011;47054;39.716;2.904;2022-09-30T12:13:40;6.38;;;0.80;;
61188;SDS011;47054;39.716;2.904;2022-09-30T12:16:29;5.25;;;1.10;;
61188;SDS011;47054;39.716;2.904;2022-09-30T12:19:22;3.13;;;0.98;;
61188;SDS011;47054;39.716;2.904;2022-09-30T12:22:31;3.80;;;1.00;;
61188;SDS011;47054;39.716;2.904;2022-09-30T12:25:23;4.47;;;0.88;;
61188;SDS011;47054;39.716;2.904;2022-09-30T12:37:41;3.20;;;0.80;;
61188;SDS011;47054;39.716;2.904;2022-09-30T12:43:26;1.85;;;0.68;;
61188;SDS011;47054;39.716;2.904;2022-09-30T12:49:24;2.83;;;0.75;;
61188;SDS011;47054;39.716;2.904;2022-09-30T12:52:16;2.17;;;0.75;;
61188;SDS011;47054;39.716;2.904;2022-09-30T12:55:08;2.92;;;0.88;;
61188;SDS011;47054;39.716;2.904;2022-09-30T12:58:03;6.00;;;1.23;;
61188;SDS011;47054;39.716;2.904;2022-09-30T13:01:33;3.05;;;0.70;;
61188;SDS011;47054;39.716;2.904;2022-09-30T13:09:55;3.38;;;0.75;;
61188;SDS011;47054;39.716;2.904;2022-09-30T13:12:43;3.72;;;0.75;;
61188;SDS011;47054;39.716;2.904;2022-09-30T13:23:55;3.17;;;0.65;;
61188;SDS011;47054;39.716;2.904;2022-09-30T13:26:40;3.03;;;0.73;;
61188;SDS011;47054;39.716;2.904;2022-09-30T13:29:32;4.03;;;1.02;;
61188;SDS011;47054;39.716;2.904;2022-09-30T13:32:34;3.13;;;0.63;;
61188;SDS011;47054;39.716;2.904;2022-09-30T13:35:32;3.63;;;0.70;;
61188;SDS011;47054;39.716;2.904;2022-09-30T13:38:20;10.50;;;1.15;;
61188;SDS011;47054;39.716;2.904;2022-09-30T13:41:21;5.95;;;0.90;;
61188;SDS011;47054;39.716;2.904;2022-09-30T13:44:11;2.28;;;0.50;;
61188;SDS011;47054;39.716;2.904;2022-09-30T13:47:01;2.72;;;1.05;;
61188;SDS011;47054;39.716;2.904;2022-09-30T13:49:59;2.50;;;0.73;;
61188;SDS011;47054;39.716;2.904;2022-09-30T13:52:56;3.55;;;0.80;;
61188;SDS011;47054;39.716;2.904;2022-09-30T13:56:07;3.22;;;0.95;;
61188;SDS011;47054;39.716;2.904;2022-09-30T13:59:23;4.75;;;1.05;;
61188;SDS011;47054;39.716;2.904;2022-09-30T14:09:09;6.40;;;0.77;;
61188;SDS011;47054;39.716;2.904;2022-09-30T14:12:06;2.83;;;0.80;;
61188;SDS011;47054;39.716;2.904;2022-09-30T14:19:03;3.15;;;0.85;;
61188;SDS011;47054;39.716;2.904;2022-09-30T14:21:52;2.53;;;0.63;;
61188;SDS011;47054;39.716;2.904;2022-09-30T14:24:39;0.98;;;0.50;;
61188;SDS011;47054;39.716;2.904;2022-09-30T14:30:36;2.63;;;0.85;;
61188;SDS011;47054;39.716;2.904;2022-09-30T14:33:24;4.95;;;0.73;;
61188;SDS011;47054;39.716;2.904;2022-09-30T14:36:12;1.30;;;0.60;;
61188;SDS011;47054;39.716;2.904;2022-09-30T14:38:59;2.30;;;0.60;;
61188;SDS011;47054;39.716;2.904;2022-09-30T14:41:48;3.08;;;0.77;;
61188;SDS011;47054;39.716;2.904;2022-09-30T14:44:35;1.50;;;0.70;;
61188;SDS011;47054;39.716;2.904;2022-09-30T14:47:21;2.25;;;0.75;;
61188;SDS011;47054;39.716;2.904;2022-09-30T14:50:19;2.95;;;0.90;;
61188;SDS011;47054;39.716;2.904;2022-09-30T14:53:26;4.25;;;0.68;;
61188;SDS011;47054;39.716;2.904;2022-09-30T14:56:20;3.25;;;0.75;;
61188;SDS011;47054;39.716;2.904;2022-09-30T15:02:11;2.00;;;0.70;;
61188;SDS011;47054;39.716;2.904;2022-09-30T15:05:01;2.47;;;0.70;;
61188;SDS011;47054;39.716;2.904;2022-09-30T15:07:48;1.90;;;0.60;;
61188;SDS011;47054;39.716;2.904;2022-09-30T15:10:33;2.13;;;0.70;;
61188;SDS011;47054;39.716;2.904;2022-09-30T15:13:18;3.20;;;0.90;;
61188;SDS011;47054;39.716;2.904;2022-09-30T15:16:23;3.33;;;0.70;;
61188;SDS011;47054;39.716;2.904;2022-09-30T15:19:28;4.18;;;0.90;;
61188;SDS011;47054;39.716;2.904;2022-09-30T15:22:19;3.22;;;0.60;;
61188;SDS011;47054;39.716;2.904;2022-09-30T15:25:04;1.80;;;0.57;;
61188;SDS011;47054;39.716;2.904;2022-09-30T15:27:49;1.92;;;0.63;;
61188;SDS011;47054;39.716;2.904;2022-09-30T15:30:34;4.50;;;0.70;;
61188;SDS011;47054;39.716;2.904;2022-09-30T15:33:20;2.83;;;0.60;;
61188;SDS011;47054;39.716;2.904;2022-09-30T15:36:11;1.13;;;0.50;;
61188;SDS011;47054;39.716;2.904;2022-09-30T15:38:59;3.83;;;0.63;;
61188;SDS011;47054;39.716;2.904;2022-09-30T15:41:43;1.23;;;0.60;;
61188;SDS011;47054;39.716;2.904;2022-09-30T15:44:36;1.52;;;0.50;;
61188;SDS011;47054;39.716;2.904;2022-09-30T15:47:22;1.55;;;0.50;;
61188;SDS011;47054;39.716;2.904;2022-09-30T15:50:56;4.90;;;0.80;;
61188;SDS011;47054;39.716;2.904;2022-09-30T15:56:42;2.30;;;0.75;;
61188;SDS011;47054;39.716;2.904;2022-09-30T15:59:55;2.75;;;0.60;;
61188;SDS011;47054;39.716;2.904;2022-09-30T16:02:41;3.25;;;0.70;;
61188;SDS011;47054;39.716;2.904;2022-09-30T16:05:26;1.85;;;0.52;;
61188;SDS011;47054;39.716;2.904;2022-09-30T16:08:13;4.57;;;0.80;;
61188;SDS011;47054;39.716;2.904;2022-09-30T16:11:06;1.13;;;0.60;;
61188;SDS011;47054;39.716;2.904;2022-09-30T16:13:52;3.60;;;0.68;;
61188;SDS011;47054;39.716;2.904;2022-09-30T16:16:40;2.28;;;0.50;;
61188;SDS011;47054;39.716;2.904;2022-09-30T16:19:26;1.42;;;0.50;;
61188;SDS011;47054;39.716;2.904;2022-09-30T16:22:28;1.20;;;0.47;;
61188;SDS011;47054;39.716;2.904;2022-09-30T16:25:23;1.73;;;0.50;;
61188;SDS011;47054;39.716;2.904;2022-09-30T16:28:12;2.58;;;0.70;;
61188;SDS011;47054;39.716;2.904;2022-09-30T16:30:58;2.75;;;0.50;;
61188;SDS011;47054;39.716;2.904;2022-09-30T16:33:42;2.35;;;0.60;;
61188;SDS011;47054;39.716;2.904;2022-09-30T16:36:28;2.95;;;0.60;;
61188;SDS011;47054;39.716;2.904;2022-09-30T16:39:13;2.03;;;0.70;;
61188;SDS011;47054;39.716;2.904;2022-09-30T16:41:59;1.90;;;0.50;;
61188;SDS011;47054;39.716;2.904;2022-09-30T16:44:43;2.40;;;0.57;;
61188;SDS011;47054;39.716;2.904;2022-09-30T16:47:28;2.67;;;0.50;;
61188;SDS011;47054;39.716;2.904;2022-09-30T16:50:16;1.98;;;0.57;;
61188;SDS011;47054;39.716;2.904;2022-09-30T16:53:08;1.63;;;0.70;;
61188;SDS011;47054;39.716;2.904;2022-09-30T16:55:53;2.10;;;0.60;;
61188;SDS011;47054;39.716;2.904;2022-09-30T16:58:39;2.25;;;0.70;;
61188;SDS011;47054;39.716;2.904;2022-09-30T17:01:24;2.05;;;0.50;;
61188;SDS011;47054;39.716;2.904;2022-09-30T17:04:09;1.42;;;0.50;;
61188;SDS011;47054;39.716;2.904;2022-09-30T17:06:55;2.25;;;0.70;;
61188;SDS011;47054;39.716;2.904;2022-09-30T17:09:40;1.15;;;0.45;;
61188;SDS011;47054;39.716;2.904;2022-09-30T17:12:26;2.45;;;0.80;;
61188;SDS011;47054;39.716;2.904;2022-09-30T17:15:10;2.25;;;0.75;;
61188;SDS011;47054;39.716;2.904;2022-09-30T17:17:55;1.73;;;0.60;;
61188;SDS011;47054;39.716;2.904;2022-09-30T17:20:41;2.90;;;0.90;;
61188;SDS011;47054;39.716;2.904;2022-09-30T17:23:27;1.70;;;0.60;;
61188;SDS011;47054;39.716;2.904;2022-09-30T17:26:12;2.47;;;0.70;;
61188;SDS011;47054;39.716;2.904;2022-09-30T17:28:57;2.35;;;0.82;;
61188;SDS011;47054;39.716;2.904;2022-09-30T17:31:42;2.17;;;0.57;;
61188;SDS011;47054;39.716;2.904;2022-09-30T17:34:26;4.15;;;0.80;;
61188;SDS011;47054;39.716;2.904;2022-09-30T17:37:10;2.70;;;0.80;;
61188;SDS011;47054;39.716;2.904;2022-09-30T17:39:57;1.95;;;0.70;;
61188;SDS011;47054;39.716;2.904;2022-09-30T17:42:42;1.00;;;0.63;;
61188;SDS011;47054;39.716;2.904;2022-09-30T17:45:45;1.63;;;0.60;;
61188;SDS011;47054;39.716;2.904;2022-09-30T17:48:30;1.65;;;0.65;;
61188;SDS011;47054;39.716;2.904;2022-09-30T17:51:15;2.22;;;0.85;;
61188;SDS011;47054;39.716;2.904;2022-09-30T17:54:00;1.25;;;0.70;;
61188;SDS011;47054;39.716;2.904;2022-09-30T17:56:45;3.17;;;0.88;;
61188;SDS011;47054;39.716;2.904;2022-09-30T17:59:30;4.07;;;0.90;;
61188;SDS011;47054;39.716;2.904;2022-09-30T18:02:15;2.60;;;0.85;;
61188;SDS011;47054;39.716;2.904;2022-09-30T18:05:00;1.42;;;0.70;;
61188;SDS011;47054;39.716;2.904;2022-09-30T18:07:45;3.05;;;1.00;;
61188;SDS011;47054;39.716;2.904;2022-09-30T18:10:30;3.35;;;0.90;;
61188;SDS011;47054;39.716;2.904;2022-09-30T18:13:14;4.68;;;0.70;;
61188;SDS011;47054;39.716;2.904;2022-09-30T18:15:59;6.35;;;1.00;;
61188;SDS011;47054;39.716;2.904;2022-09-30T18:18:48;2.25;;;0.80;;
61188;SDS011;47054;39.716;2.904;2022-09-30T18:21:33;2.25;;;0.80;;
61188;SDS011;47054;39.716;2.904;2022-09-30T18:24:20;2.03;;;0.80;;
61188;SDS011;47054;39.716;2.904;2022-09-30T18:27:25;1.92;;;0.63;;
61188;SDS011;47054;39.716;2.904;2022-09-30T18:30:11;1.58;;;0.80;;
61188;SDS011;47054;39.716;2.904;2022-09-30T18:32:55;2.13;;;0.88;;
61188;SDS011;47054;39.716;2.904;2022-09-30T18:35:42;1.70;;;0.80;;
61188;SDS011;47054;39.716;2.904;2022-09-30T18:38:26;2.45;;;0.93;;
61188;SDS011;47054;39.716;2.904;2022-09-30T18:41:11;2.15;;;1.05;;
61188;SDS011;47054;39.716;2.904;2022-09-30T18:43:56;2.65;;;0.98;;
61188;SDS011;47054;39.716;2.904;2022-09-30T18:46:45;3.63;;;0.90;;
61188;SDS011;47054;39.716;2.904;2022-09-30T18:49:30;2.03;;;0.98;;
61188;SDS011;47054;39.716;2.904;2022-09-30T18:52:15;2.45;;;0.98;;
61188;SDS011;47054;39.716;2.904;2022-09-30T18:55:00;3.45;;;1.00;;
61188;SDS011;47054;39.716;2.904;2022-09-30T18:57:45;2.65;;;1.00;;
61188;SDS011;47054;39.716;2.904;2022-09-30T19:00:33;4.00;;;1.05;;
61188;SDS011;47054;39.716;2.904;2022-09-30T19:03:17;1.83;;;0.90;;
61188;SDS011;47054;39.716;2.904;2022-09-30T19:06:05;4.72;;;1.20;;
61188;SDS011;47054;39.716;2.904;2022-09-30T19:08:51;2.53;;;1.00;;
61188;SDS011;47054;39.716;2.904;2022-09-30T19:11:35;2.65;;;1.00;;
61188;SDS011;47054;39.716;2.904;2022-09-30T19:14:20;3.22;;;1.10;;
61188;SDS011;47054;39.716;2.904;2022-09-30T19:17:06;1.35;;;0.80;;
61188;SDS011;47054;39.716;2.904;2022-09-30T19:19:50;3.97;;;1.10;;
61188;SDS011;47054;39.716;2.904;2022-09-30T19:22:35;2.35;;;1.00;;
61188;SDS011;47054;39.716;2.904;2022-09-30T19:25:20;1.92;;;1.10;;
61188;SDS011;47054;39.716;2.904;2022-09-30T19:28:05;3.13;;;1.30;;
61188;SDS011;47054;39.716;2.904;2022-09-30T19:30:50;4.40;;;1.38;;
61188;SDS011;47054;39.716;2.904;2022-09-30T19:33:34;2.22;;;0.93;;
61188;SDS011;47054;39.716;2.904;2022-09-30T19:36:20;2.83;;;1.13;;
61188;SDS011;47054;39.716;2.904;2022-09-30T19:39:04;2.75;;;1.20;;
61188;SDS011;47054;39.716;2.904;2022-09-30T19:41:49;3.58;;;1.25;;
61188;SDS011;47054;39.716;2.904;2022-09-30T19:44:33;2.38;;;1.40;;
61188;SDS011;47054;39.716;2.904;2022-09-30T19:47:19;2.03;;;1.05;;
61188;SDS011;47054;39.716;2.904;2022-09-30T19:50:04;3.83;;;1.23;;
61188;SDS011;47054;39.716;2.904;2022-09-30T19:52:50;1.92;;;1.10;;
61188;SDS011;47054;39.716;2.904;2022-09-30T19:55:36;2.78;;;1.23;;
61188;SDS011;47054;39.716;2.904;2022-09-30T19:58:21;3.72;;;1.48;;
61188;SDS011;47054;39.716;2.904;2022-09-30T20:01:06;3.08;;;1.58;;
61188;SDS011;47054;39.716;2.904;2022-09-30T20:03:53;3.88;;;1.30;;
61188;SDS011;47054;39.716;2.904;2022-09-30T20:06:38;3.88;;;1.40;;
61188;SDS011;47054;39.716;2.904;2022-09-30T20:09:24;2.83;;;1.40;;